sensor_id;sensor_type;location;lat;lon;timestamp;temperature;humidity
41628;DHT22;27321;50.816;6.054;2022-09-12T00:01:07;17.30;71.30
41628;DHT22;27321;50.816;6.054;2022-09-12T00:04:10;17.20;71.60
41628;DHT22;27321;50.816;6.054;2022-09-12T00:07:11;17.20;71.60
41628;DHT22;27321;50.816;6.054;2022-09-12T00:10:13;17.10;71.50
41628;DHT22;27321;50.816;6.054;2022-09-12T00:13:15;17.10;71.90
41628;DHT22;27321;50.816;6.054;2022-09-12T00:16:20;17.10;71.70
41628;DHT22;27321;50.816;6.054;2022-09-12T00:19:23;17.10;71.70
41628;DHT22;27321;50.816;6.054;2022-09-12T00:22:28;17.10;72.00
41628;DHT22;27321;50.816;6.054;2022-09-12T00:25:29;17.10;71.50
41628;DHT22;27321;50.816;6.054;2022-09-12T00:28:31;17.10;71.80
41628;DHT22;27321;50.816;6.054;2022-09-12T00:31:33;17.10;71.60
41628;DHT22;27321;50.816;6.054;2022-09-12T00:34:35;17.10;71.40
41628;DHT22;27321;50.816;6.054;2022-09-12T00:37:36;17.10;71.40
41628;DHT22;27321;50.816;6.054;2022-09-12T00:40:38;17.10;71.10
41628;DHT22;27321;50.816;6.054;2022-09-12T00:43:41;17.10;71.10
41628;DHT22;27321;50.816;6.054;2022-09-12T00:50:13;17.00;71.30
41628;DHT22;27321;50.816;6.054;2022-09-12T00:53:15;17.00;71.50
41628;DHT22;27321;50.816;6.054;2022-09-12T00:56:17;16.90;71.50
41628;DHT22;27321;50.816;6.054;2022-09-12T00:59:21;16.90;71.40
41628;DHT22;27321;50.816;6.054;2022-09-12T01:02:25;16.90;71.50
41628;DHT22;27321;50.816;6.054;2022-09-12T01:05:27;16.90;71.60
41628;DHT22;27321;50.816;6.054;2022-09-12T01:08:29;16.80;71.50
41628;DHT22;27321;50.816;6.054;2022-09-12T01:11:33;16.80;71.60
41628;DHT22;27321;50.816;6.054;2022-09-12T01:14:36;16.80;71.50
41628;DHT22;27321;50.816;6.054;2022-09-12T01:31:21;16.70;71.20
41628;DHT22;27321;50.816;6.054;2022-09-12T01:34:25;16.70;71.10
41628;DHT22;27321;50.816;6.054;2022-09-12T01:37:39;16.70;71.30
41628;DHT22;27321;50.816;6.054;2022-09-12T01:41:13;16.70;71.30
41628;DHT22;27321;50.816;6.054;2022-09-12T01:45:23;16.60;71.40
41628;DHT22;27321;50.816;6.054;2022-09-12T01:51:09;16.60;71.50
41628;DHT22;27321;50.816;6.054;2022-09-12T01:54:42;16.60;71.60
41628;DHT22;27321;50.816;6.054;2022-09-12T01:57:58;16.60;71.50
41628;DHT22;27321;50.816;6.054;2022-09-12T02:01:16;16.60;71.60
41628;DHT22;27321;50.816;6.054;2022-09-12T02:04:25;16.50;71.50
41628;DHT22;27321;50.816;6.054;2022-09-12T02:07:34;16.50;71.60
41628;DHT22;27321;50.816;6.054;2022-09-12T02:11:02;16.50;71.50
41628;DHT22;27321;50.816;6.054;2022-09-12T02:14:11;16.50;71.60
41628;DHT22;27321;50.816;6.054;2022-09-12T02:17:25;16.50;71.60
41628;DHT22;27321;50.816;6.054;2022-09-12T02:20:31;16.40;71.50
41628;DHT22;27321;50.816;6.054;2022-09-12T02:23:35;16.40;71.60
41628;DHT22;27321;50.816;6.054;2022-09-12T02:27:22;16.40;71.60
41628;DHT22;27321;50.816;6.054;2022-09-12T02:30:05;16.40;71.70
41628;DHT22;27321;50.816;6.054;2022-09-12T02:33:12;16.40;71.60
41628;DHT22;27321;50.816;6.054;2022-09-12T02:36:32;16.40;71.70
41628;DHT22;27321;50.816;6.054;2022-09-12T02:39:34;16.30;71.70
41628;DHT22;27321;50.816;6.054;2022-09-12T02:42:36;16.40;71.70
41628;DHT22;27321;50.816;6.054;2022-09-12T02:45:37;16.30;71.40
41628;DHT22;27321;50.816;6.054;2022-09-12T02:48:39;16.30;71.40
41628;DHT22;27321;50.816;6.054;2022-09-12T02:51:42;16.30;71.60
41628;DHT22;27321;50.816;6.054;2022-09-12T02:54:43;16.30;71.90
41628;DHT22;27321;50.816;6.054;2022-09-12T02:57:44;16.20;72.10
41628;DHT22;27321;50.816;6.054;2022-09-12T03:00:50;16.30;72.20
41628;DHT22;27321;50.816;6.054;2022-09-12T03:20:14;16.10;72.30
41628;DHT22;27321;50.816;6.054;2022-09-12T03:27:11;16.10;72.30
41628;DHT22;27321;50.816;6.054;2022-09-12T03:30:16;16.10;72.40
41628;DHT22;27321;50.816;6.054;2022-09-12T03:33:18;16.10;72.30
41628;DHT22;27321;50.816;6.054;2022-09-12T03:36:23;16.10;72.30
41628;DHT22;27321;50.816;6.054;2022-09-12T03:39:26;16.10;72.50
41628;DHT22;27321;50.816;6.054;2022-09-12T03:42:27;16.10;72.50
41628;DHT22;27321;50.816;6.054;2022-09-12T03:45:28;16.10;72.70
41628;DHT22;27321;50.816;6.054;2022-09-12T03:48:29;16.10;72.60
41628;DHT22;27321;50.816;6.054;2022-09-12T03:51:31;16.10;72.90
41628;DHT22;27321;50.816;6.054;2022-09-12T03:54:38;16.00;73.30
41628;DHT22;27321;50.816;6.054;2022-09-12T03:57:39;16.00;73.40
41628;DHT22;27321;50.816;6.054;2022-09-12T04:00:40;16.00;73.50
41628;DHT22;27321;50.816;6.054;2022-09-12T04:03:43;16.00;73.30
41628;DHT22;27321;50.816;6.054;2022-09-12T04:06:45;16.00;73.20
41628;DHT22;27321;50.816;6.054;2022-09-12T04:09:46;16.00;73.40
41628;DHT22;27321;50.816;6.054;2022-09-12T04:12:47;16.00;73.60
41628;DHT22;27321;50.816;6.054;2022-09-12T04:15:56;16.00;73.50
41628;DHT22;27321;50.816;6.054;2022-09-12T04:19:00;16.00;73.80
41628;DHT22;27321;50.816;6.054;2022-09-12T04:22:01;16.00;74.00
41628;DHT22;27321;50.816;6.054;2022-09-12T04:25:02;16.00;73.90
41628;DHT22;27321;50.816;6.054;2022-09-12T04:28:03;16.00;73.90
41628;DHT22;27321;50.816;6.054;2022-09-12T04:31:05;16.00;73.90
41628;DHT22;27321;50.816;6.054;2022-09-12T04:34:08;16.00;73.90
41628;DHT22;27321;50.816;6.054;2022-09-12T04:37:09;16.00;73.70
41628;DHT22;27321;50.816;6.054;2022-09-12T04:40:11;16.10;73.60
41628;DHT22;27321;50.816;6.054;2022-09-12T04:43:12;16.00;73.70
41628;DHT22;27321;50.816;6.054;2022-09-12T04:46:14;16.00;73.70
41628;DHT22;27321;50.816;6.054;2022-09-12T04:49:16;16.00;73.70
41628;DHT22;27321;50.816;6.054;2022-09-12T04:52:18;16.00;74.00
41628;DHT22;27321;50.816;6.054;2022-09-12T04:55:20;15.90;74.10
41628;DHT22;27321;50.816;6.054;2022-09-12T04:58:21;15.90;74.20
41628;DHT22;27321;50.816;6.054;2022-09-12T05:01:22;15.90;74.20
41628;DHT22;27321;50.816;6.054;2022-09-12T05:04:23;15.90;74.10
41628;DHT22;27321;50.816;6.054;2022-09-12T05:07:24;15.90;74.20
41628;DHT22;27321;50.816;6.054;2022-09-12T05:10:25;15.90;74.00
41628;DHT22;27321;50.816;6.054;2022-09-12T05:13:26;15.90;74.10
41628;DHT22;27321;50.816;6.054;2022-09-12T05:16:27;15.90;73.90
41628;DHT22;27321;50.816;6.054;2022-09-12T05:19:29;15.90;74.10
41628;DHT22;27321;50.816;6.054;2022-09-12T05:22:33;15.90;74.00
41628;DHT22;27321;50.816;6.054;2022-09-12T05:25:34;16.00;74.00
41628;DHT22;27321;50.816;6.054;2022-09-12T05:28:35;16.00;74.20
41628;DHT22;27321;50.816;6.054;2022-09-12T05:31:38;16.00;74.20
41628;DHT22;27321;50.816;6.054;2022-09-12T05:34:39;16.00;74.10
41628;DHT22;27321;50.816;6.054;2022-09-12T05:37:41;16.10;74.10
41628;DHT22;27321;50.816;6.054;2022-09-12T05:40:42;16.10;74.00
41628;DHT22;27321;50.816;6.054;2022-09-12T05:43:44;16.10;74.10
41628;DHT22;27321;50.816;6.054;2022-09-12T05:46:45;16.20;74.00
41628;DHT22;27321;50.816;6.054;2022-09-12T05:49:49;16.10;74.10
41628;DHT22;27321;50.816;6.054;2022-09-12T05:52:51;16.20;74.00
41628;DHT22;27321;50.816;6.054;2022-09-12T05:56:04;16.20;74.30
41628;DHT22;27321;50.816;6.054;2022-09-12T05:59:09;16.20;74.30
41628;DHT22;27321;50.816;6.054;2022-09-12T06:02:13;16.20;74.20
41628;DHT22;27321;50.816;6.054;2022-09-12T06:05:15;16.20;74.40
41628;DHT22;27321;50.816;6.054;2022-09-12T06:08:17;16.20;75.00
41628;DHT22;27321;50.816;6.054;2022-09-12T06:11:19;16.20;74.80
41628;DHT22;27321;50.816;6.054;2022-09-12T06:14:22;16.30;74.90
41628;DHT22;27321;50.816;6.054;2022-09-12T06:17:23;16.30;75.10
41628;DHT22;27321;50.816;6.054;2022-09-12T06:20:24;16.30;75.10
41628;DHT22;27321;50.816;6.054;2022-09-12T06:23:25;16.30;75.50
41628;DHT22;27321;50.816;6.054;2022-09-12T06:26:29;16.30;75.60
41628;DHT22;27321;50.816;6.054;2022-09-12T06:29:31;16.40;75.60
41628;DHT22;27321;50.816;6.054;2022-09-12T06:32:33;16.40;75.70
41628;DHT22;27321;50.816;6.054;2022-09-12T06:35:35;16.40;75.80
41628;DHT22;27321;50.816;6.054;2022-09-12T06:38:38;16.50;75.90
41628;DHT22;27321;50.816;6.054;2022-09-12T06:41:48;16.50;75.90
41628;DHT22;27321;50.816;6.054;2022-09-12T06:44:50;16.50;75.90
41628;DHT22;27321;50.816;6.054;2022-09-12T06:47:54;16.60;76.00
41628;DHT22;27321;50.816;6.054;2022-09-12T06:51:00;16.60;76.10
41628;DHT22;27321;50.816;6.054;2022-09-12T06:54:03;16.70;76.30
41628;DHT22;27321;50.816;6.054;2022-09-12T06:57:23;16.80;76.40
41628;DHT22;27321;50.816;6.054;2022-09-12T07:00:25;16.90;76.50
41628;DHT22;27321;50.816;6.054;2022-09-12T07:03:26;17.00;76.70
41628;DHT22;27321;50.816;6.054;2022-09-12T07:06:29;17.10;76.70
41628;DHT22;27321;50.816;6.054;2022-09-12T07:09:34;17.10;76.50
41628;DHT22;27321;50.816;6.054;2022-09-12T07:12:35;17.20;76.10
41628;DHT22;27321;50.816;6.054;2022-09-12T07:15:37;17.40;75.90
41628;DHT22;27321;50.816;6.054;2022-09-12T07:18:38;17.50;75.50
41628;DHT22;27321;50.816;6.054;2022-09-12T07:21:41;17.60;75.70
41628;DHT22;27321;50.816;6.054;2022-09-12T07:25:01;17.60;75.50
41628;DHT22;27321;50.816;6.054;2022-09-12T07:28:02;17.70;75.50
41628;DHT22;27321;50.816;6.054;2022-09-12T07:31:04;17.70;75.30
41628;DHT22;27321;50.816;6.054;2022-09-12T07:34:10;17.80;75.10
41628;DHT22;27321;50.816;6.054;2022-09-12T07:37:11;17.90;75.10
41628;DHT22;27321;50.816;6.054;2022-09-12T07:40:13;18.00;75.10
41628;DHT22;27321;50.816;6.054;2022-09-12T07:43:14;18.10;75.00
41628;DHT22;27321;50.816;6.054;2022-09-12T07:46:34;18.00;74.90
41628;DHT22;27321;50.816;6.054;2022-09-12T07:49:36;18.10;74.80
41628;DHT22;27321;50.816;6.054;2022-09-12T07:52:37;18.00;74.90
41628;DHT22;27321;50.816;6.054;2022-09-12T07:55:43;18.00;75.20
41628;DHT22;27321;50.816;6.054;2022-09-12T07:58:45;18.00;75.20
41628;DHT22;27321;50.816;6.054;2022-09-12T08:01:46;18.00;75.00
41628;DHT22;27321;50.816;6.054;2022-09-12T08:04:48;18.00;75.20
41628;DHT22;27321;50.816;6.054;2022-09-12T08:07:52;18.10;75.50
41628;DHT22;27321;50.816;6.054;2022-09-12T08:10:57;18.10;75.40
41628;DHT22;27321;50.816;6.054;2022-09-12T08:13:59;18.20;74.80
41628;DHT22;27321;50.816;6.054;2022-09-12T08:17:03;18.30;73.90
41628;DHT22;27321;50.816;6.054;2022-09-12T08:20:48;18.40;73.50
41628;DHT22;27321;50.816;6.054;2022-09-12T08:24:06;18.50;72.70
41628;DHT22;27321;50.816;6.054;2022-09-12T08:27:08;18.60;72.20
41628;DHT22;27321;50.816;6.054;2022-09-12T08:33:42;18.80;72.00
41628;DHT22;27321;50.816;6.054;2022-09-12T08:36:43;18.80;71.40
41628;DHT22;27321;50.816;6.054;2022-09-12T08:39:44;18.90;71.40
41628;DHT22;27321;50.816;6.054;2022-09-12T08:42:51;19.00;70.90
41628;DHT22;27321;50.816;6.054;2022-09-12T08:46:07;19.00;70.40
41628;DHT22;27321;50.816;6.054;2022-09-12T08:49:12;19.10;70.60
41628;DHT22;27321;50.816;6.054;2022-09-12T08:55:52;19.10;69.20
41628;DHT22;27321;50.816;6.054;2022-09-12T08:58:56;19.20;68.90
41628;DHT22;27321;50.816;6.054;2022-09-12T09:01:59;19.20;68.50
41628;DHT22;27321;50.816;6.054;2022-09-12T09:08:41;19.40;67.90
41628;DHT22;27321;50.816;6.054;2022-09-12T09:18:57;19.60;67.60
41628;DHT22;27321;50.816;6.054;2022-09-12T09:22:03;19.70;66.90
41628;DHT22;27321;50.816;6.054;2022-09-12T09:25:10;19.70;66.60
41628;DHT22;27321;50.816;6.054;2022-09-12T09:28:31;19.80;67.40
41628;DHT22;27321;50.816;6.054;2022-09-12T09:31:39;19.90;67.20
41628;DHT22;27321;50.816;6.054;2022-09-12T09:34:41;19.90;66.80
41628;DHT22;27321;50.816;6.054;2022-09-12T09:41:52;20.00;65.90
41628;DHT22;27321;50.816;6.054;2022-09-12T09:44:27;20.00;66.20
41628;DHT22;27321;50.816;6.054;2022-09-12T09:47:29;20.00;65.80
41628;DHT22;27321;50.816;6.054;2022-09-12T09:50:30;20.10;65.80
41628;DHT22;27321;50.816;6.054;2022-09-12T09:56:54;20.10;64.60
41628;DHT22;27321;50.816;6.054;2022-09-12T09:59:55;20.20;64.90
41628;DHT22;27321;50.816;6.054;2022-09-12T10:02:57;20.20;65.30
41628;DHT22;27321;50.816;6.054;2022-09-12T10:06:22;20.30;65.10
41628;DHT22;27321;50.816;6.054;2022-09-12T10:09:34;20.40;65.50
41628;DHT22;27321;50.816;6.054;2022-09-12T10:12:36;20.50;65.20
41628;DHT22;27321;50.816;6.054;2022-09-12T10:15:37;20.50;64.70
41628;DHT22;27321;50.816;6.054;2022-09-12T10:18:41;20.60;65.30
41628;DHT22;27321;50.816;6.054;2022-09-12T10:21:52;20.60;64.90
41628;DHT22;27321;50.816;6.054;2022-09-12T10:24:56;20.60;63.70
41628;DHT22;27321;50.816;6.054;2022-09-12T10:27:58;20.70;63.80
41628;DHT22;27321;50.816;6.054;2022-09-12T10:31:00;20.70;63.40
41628;DHT22;27321;50.816;6.054;2022-09-12T10:34:02;20.80;63.10
41628;DHT22;27321;50.816;6.054;2022-09-12T10:37:06;20.90;62.80
41628;DHT22;27321;50.816;6.054;2022-09-12T10:44:07;21.00;62.50
41628;DHT22;27321;50.816;6.054;2022-09-12T10:47:54;21.10;62.20
41628;DHT22;27321;50.816;6.054;2022-09-12T10:51:37;21.20;62.30
41628;DHT22;27321;50.816;6.054;2022-09-12T10:55:15;21.30;62.30
41628;DHT22;27321;50.816;6.054;2022-09-12T11:05:32;21.40;59.90
41628;DHT22;27321;50.816;6.054;2022-09-12T11:08:50;21.50;60.70
41628;DHT22;27321;50.816;6.054;2022-09-12T11:12:01;21.50;59.10
41628;DHT22;27321;50.816;6.054;2022-09-12T11:22:50;21.60;59.30
41628;DHT22;27321;50.816;6.054;2022-09-12T11:25:51;21.60;58.80
41628;DHT22;27321;50.816;6.054;2022-09-12T11:29:02;21.60;58.00
41628;DHT22;27321;50.816;6.054;2022-09-12T11:35:28;21.60;56.50
41628;DHT22;27321;50.816;6.054;2022-09-12T11:42:12;21.70;58.40
41628;DHT22;27321;50.816;6.054;2022-09-12T11:45:19;21.70;55.90
41628;DHT22;27321;50.816;6.054;2022-09-12T11:55:01;21.90;55.80
41628;DHT22;27321;50.816;6.054;2022-09-12T11:58:06;21.90;55.70
41628;DHT22;27321;50.816;6.054;2022-09-12T12:01:14;22.00;54.60
41628;DHT22;27321;50.816;6.054;2022-09-12T12:04:19;22.00;55.10
41628;DHT22;27321;50.816;6.054;2022-09-12T12:07:39;22.10;55.00
41628;DHT22;27321;50.816;6.054;2022-09-12T12:13:59;22.10;54.90
41628;DHT22;27321;50.816;6.054;2022-09-12T12:17:13;22.20;55.30
41628;DHT22;27321;50.816;6.054;2022-09-12T12:20:24;22.20;55.70
41628;DHT22;27321;50.816;6.054;2022-09-12T12:23:32;22.20;54.50
41628;DHT22;27321;50.816;6.054;2022-09-12T12:26:44;22.20;55.00
41628;DHT22;27321;50.816;6.054;2022-09-12T12:29:56;22.30;54.50
41628;DHT22;27321;50.816;6.054;2022-09-12T12:36:35;22.40;54.10
41628;DHT22;27321;50.816;6.054;2022-09-12T12:52:15;22.60;51.40
41628;DHT22;27321;50.816;6.054;2022-09-12T12:55:36;22.60;51.00
41628;DHT22;27321;50.816;6.054;2022-09-12T12:58:39;22.70;51.20
41628;DHT22;27321;50.816;6.054;2022-09-12T13:01:51;22.70;51.30
41628;DHT22;27321;50.816;6.054;2022-09-12T13:04:53;22.80;52.10
41628;DHT22;27321;50.816;6.054;2022-09-12T13:11:30;22.80;50.80
41628;DHT22;27321;50.816;6.054;2022-09-12T13:14:36;22.90;51.30
41628;DHT22;27321;50.816;6.054;2022-09-12T13:17:47;22.90;51.10
41628;DHT22;27321;50.816;6.054;2022-09-12T13:20:53;23.00;51.10
41628;DHT22;27321;50.816;6.054;2022-09-12T13:24:28;23.00;50.30
41628;DHT22;27321;50.816;6.054;2022-09-12T13:27:28;23.10;48.90
41628;DHT22;27321;50.816;6.054;2022-09-12T13:30:32;23.10;49.30
41628;DHT22;27321;50.816;6.054;2022-09-12T13:33:35;23.10;49.60
41628;DHT22;27321;50.816;6.054;2022-09-12T13:43:44;23.30;48.90
41628;DHT22;27321;50.816;6.054;2022-09-12T13:46:49;23.30;48.90
41628;DHT22;27321;50.816;6.054;2022-09-12T13:49:51;23.40;48.10
41628;DHT22;27321;50.816;6.054;2022-09-12T13:52:57;23.40;48.50
41628;DHT22;27321;50.816;6.054;2022-09-12T13:56:01;23.50;48.80
41628;DHT22;27321;50.816;6.054;2022-09-12T13:59:09;23.50;49.10
41628;DHT22;27321;50.816;6.054;2022-09-12T14:02:18;23.60;49.60
41628;DHT22;27321;50.816;6.054;2022-09-12T14:05:23;23.60;49.60
41628;DHT22;27321;50.816;6.054;2022-09-12T14:08:25;23.60;49.60
41628;DHT22;27321;50.816;6.054;2022-09-12T14:11:27;23.70;49.40
41628;DHT22;27321;50.816;6.054;2022-09-12T14:14:35;23.70;49.80
41628;DHT22;27321;50.816;6.054;2022-09-12T14:17:37;23.70;50.20
41628;DHT22;27321;50.816;6.054;2022-09-12T14:20:42;23.70;51.00
41628;DHT22;27321;50.816;6.054;2022-09-12T14:23:44;23.60;50.70
41628;DHT22;27321;50.816;6.054;2022-09-12T14:26:49;23.70;50.90
41628;DHT22;27321;50.816;6.054;2022-09-12T14:29:59;23.60;50.70
41628;DHT22;27321;50.816;6.054;2022-09-12T14:39:39;23.70;50.30
41628;DHT22;27321;50.816;6.054;2022-09-12T14:42:41;23.80;50.80
41628;DHT22;27321;50.816;6.054;2022-09-12T14:45:43;23.80;50.40
41628;DHT22;27321;50.816;6.054;2022-09-12T14:48:58;23.80;49.20
41628;DHT22;27321;50.816;6.054;2022-09-12T14:52:03;23.90;49.00
41628;DHT22;27321;50.816;6.054;2022-09-12T14:55:27;24.00;48.80
41628;DHT22;27321;50.816;6.054;2022-09-12T14:58:30;24.00;47.90
41628;DHT22;27321;50.816;6.054;2022-09-12T15:01:32;24.00;47.70
41628;DHT22;27321;50.816;6.054;2022-09-12T15:04:38;24.00;47.80
41628;DHT22;27321;50.816;6.054;2022-09-12T15:07:54;24.00;47.10
41628;DHT22;27321;50.816;6.054;2022-09-12T15:10:58;24.00;47.10
41628;DHT22;27321;50.816;6.054;2022-09-12T15:14:08;24.00;46.90
41628;DHT22;27321;50.816;6.054;2022-09-12T15:17:13;24.00;46.70
41628;DHT22;27321;50.816;6.054;2022-09-12T15:20:14;23.90;47.10
41628;DHT22;27321;50.816;6.054;2022-09-12T15:26:49;24.00;47.10
41628;DHT22;27321;50.816;6.054;2022-09-12T15:29:53;23.90;47.40
41628;DHT22;27321;50.816;6.054;2022-09-12T15:32:54;24.00;47.50
41628;DHT22;27321;50.816;6.054;2022-09-12T15:35:56;24.00;47.60
41628;DHT22;27321;50.816;6.054;2022-09-12T15:38:57;24.00;47.10
41628;DHT22;27321;50.816;6.054;2022-09-12T15:41:58;24.00;47.50
41628;DHT22;27321;50.816;6.054;2022-09-12T15:44:59;24.00;47.90
41628;DHT22;27321;50.816;6.054;2022-09-12T15:48:00;24.00;47.90
41628;DHT22;27321;50.816;6.054;2022-09-12T15:51:03;24.00;48.20
41628;DHT22;27321;50.816;6.054;2022-09-12T15:54:04;24.00;48.60
41628;DHT22;27321;50.816;6.054;2022-09-12T15:57:06;24.00;48.80
41628;DHT22;27321;50.816;6.054;2022-09-12T16:00:08;24.00;49.10
41628;DHT22;27321;50.816;6.054;2022-09-12T16:03:25;24.00;49.10
41628;DHT22;27321;50.816;6.054;2022-09-12T16:06:28;24.00;48.50
41628;DHT22;27321;50.816;6.054;2022-09-12T16:09:32;24.00;48.60
41628;DHT22;27321;50.816;6.054;2022-09-12T16:12:34;24.00;48.20
41628;DHT22;27321;50.816;6.054;2022-09-12T16:15:35;24.00;48.20
41628;DHT22;27321;50.816;6.054;2022-09-12T16:18:41;24.00;48.50
41628;DHT22;27321;50.816;6.054;2022-09-12T16:21:45;23.90;48.80
41628;DHT22;27321;50.816;6.054;2022-09-12T16:24:46;23.90;49.10
41628;DHT22;27321;50.816;6.054;2022-09-12T16:27:47;23.80;48.50
41628;DHT22;27321;50.816;6.054;2022-09-12T16:30:55;23.80;48.70
41628;DHT22;27321;50.816;6.054;2022-09-12T16:33:57;23.80;48.80
41628;DHT22;27321;50.816;6.054;2022-09-12T16:36:58;23.80;49.60
41628;DHT22;27321;50.816;6.054;2022-09-12T16:40:00;23.70;49.00
41628;DHT22;27321;50.816;6.054;2022-09-12T16:43:02;23.60;48.70
41628;DHT22;27321;50.816;6.054;2022-09-12T16:46:05;23.60;49.10
41628;DHT22;27321;50.816;6.054;2022-09-12T16:49:09;23.60;49.60
41628;DHT22;27321;50.816;6.054;2022-09-12T16:52:11;23.60;49.80
41628;DHT22;27321;50.816;6.054;2022-09-12T16:55:13;23.60;50.20
41628;DHT22;27321;50.816;6.054;2022-09-12T16:58:14;23.60;50.00
41628;DHT22;27321;50.816;6.054;2022-09-12T17:01:18;23.60;50.30
41628;DHT22;27321;50.816;6.054;2022-09-12T17:04:21;23.50;51.20
41628;DHT22;27321;50.816;6.054;2022-09-12T17:07:22;23.60;51.60
41628;DHT22;27321;50.816;6.054;2022-09-12T17:10:23;23.50;52.50
41628;DHT22;27321;50.816;6.054;2022-09-12T17:13:25;23.40;52.90
41628;DHT22;27321;50.816;6.054;2022-09-12T17:16:27;23.40;53.30
41628;DHT22;27321;50.816;6.054;2022-09-12T17:19:29;23.30;54.30
41628;DHT22;27321;50.816;6.054;2022-09-12T17:22:29;23.30;55.00
41628;DHT22;27321;50.816;6.054;2022-09-12T17:25:30;23.20;55.80
41628;DHT22;27321;50.816;6.054;2022-09-12T17:28:32;23.10;56.40
41628;DHT22;27321;50.816;6.054;2022-09-12T17:31:33;23.00;57.30
41628;DHT22;27321;50.816;6.054;2022-09-12T17:34:34;23.00;58.30
41628;DHT22;27321;50.816;6.054;2022-09-12T17:37:35;22.90;59.00
41628;DHT22;27321;50.816;6.054;2022-09-12T17:40:36;22.80;59.30
41628;DHT22;27321;50.816;6.054;2022-09-12T17:43:37;22.70;59.60
41628;DHT22;27321;50.816;6.054;2022-09-12T17:46:41;22.60;59.80
41628;DHT22;27321;50.816;6.054;2022-09-12T17:49:42;22.50;60.20
41628;DHT22;27321;50.816;6.054;2022-09-12T17:52:44;22.50;60.50
41628;DHT22;27321;50.816;6.054;2022-09-12T17:55:46;22.50;60.40
41628;DHT22;27321;50.816;6.054;2022-09-12T17:58:50;22.40;60.50
41628;DHT22;27321;50.816;6.054;2022-09-12T18:01:51;22.30;60.80
41628;DHT22;27321;50.816;6.054;2022-09-12T18:05:10;22.20;61.20
41628;DHT22;27321;50.816;6.054;2022-09-12T18:08:11;22.10;61.50
41628;DHT22;27321;50.816;6.054;2022-09-12T18:11:13;22.10;61.80
41628;DHT22;27321;50.816;6.054;2022-09-12T18:14:14;22.10;62.10
41628;DHT22;27321;50.816;6.054;2022-09-12T18:17:15;22.00;62.20
41628;DHT22;27321;50.816;6.054;2022-09-12T18:20:16;22.00;62.10
41628;DHT22;27321;50.816;6.054;2022-09-12T18:23:17;21.90;62.20
41628;DHT22;27321;50.816;6.054;2022-09-12T18:26:18;21.80;62.60
41628;DHT22;27321;50.816;6.054;2022-09-12T18:29:19;21.80;62.90
41628;DHT22;27321;50.816;6.054;2022-09-12T18:32:22;21.70;62.70
41628;DHT22;27321;50.816;6.054;2022-09-12T18:35:23;21.60;62.80
41628;DHT22;27321;50.816;6.054;2022-09-12T18:38:24;21.60;63.00
41628;DHT22;27321;50.816;6.054;2022-09-12T18:41:25;21.60;63.10
41628;DHT22;27321;50.816;6.054;2022-09-12T18:44:28;21.60;63.30
41628;DHT22;27321;50.816;6.054;2022-09-12T18:47:29;21.60;63.30
41628;DHT22;27321;50.816;6.054;2022-09-12T18:50:31;21.50;63.60
41628;DHT22;27321;50.816;6.054;2022-09-12T18:53:33;21.50;63.50
41628;DHT22;27321;50.816;6.054;2022-09-12T18:56:36;21.40;63.70
41628;DHT22;27321;50.816;6.054;2022-09-12T18:59:38;21.40;63.70
41628;DHT22;27321;50.816;6.054;2022-09-12T19:02:38;21.40;63.40
41628;DHT22;27321;50.816;6.054;2022-09-12T19:05:40;21.30;63.50
41628;DHT22;27321;50.816;6.054;2022-09-12T19:08:42;21.30;63.80
41628;DHT22;27321;50.816;6.054;2022-09-12T19:11:45;21.30;64.10
41628;DHT22;27321;50.816;6.054;2022-09-12T19:14:49;21.20;64.20
41628;DHT22;27321;50.816;6.054;2022-09-12T19:17:50;21.20;64.30
41628;DHT22;27321;50.816;6.054;2022-09-12T19:20:51;21.20;64.60
41628;DHT22;27321;50.816;6.054;2022-09-12T19:23:55;21.20;64.60
41628;DHT22;27321;50.816;6.054;2022-09-12T19:26:58;21.10;64.70
41628;DHT22;27321;50.816;6.054;2022-09-12T19:29:59;21.10;64.60
41628;DHT22;27321;50.816;6.054;2022-09-12T19:33:00;21.10;64.90
41628;DHT22;27321;50.816;6.054;2022-09-12T19:36:06;21.10;65.00
41628;DHT22;27321;50.816;6.054;2022-09-12T19:39:08;21.10;65.00
41628;DHT22;27321;50.816;6.054;2022-09-12T19:42:09;21.00;64.10
41628;DHT22;27321;50.816;6.054;2022-09-12T19:45:11;21.00;63.40
41628;DHT22;27321;50.816;6.054;2022-09-12T19:48:12;20.90;63.50
41628;DHT22;27321;50.816;6.054;2022-09-12T19:51:13;20.90;63.10
41628;DHT22;27321;50.816;6.054;2022-09-12T19:54:15;20.90;62.70
41628;DHT22;27321;50.816;6.054;2022-09-12T19:57:16;20.90;62.50
41628;DHT22;27321;50.816;6.054;2022-09-12T20:00:17;20.90;61.90
41628;DHT22;27321;50.816;6.054;2022-09-12T20:03:19;20.90;61.90
41628;DHT22;27321;50.816;6.054;2022-09-12T20:06:20;20.90;61.40
41628;DHT22;27321;50.816;6.054;2022-09-12T20:09:22;20.80;61.10
41628;DHT22;27321;50.816;6.054;2022-09-12T20:12:23;20.80;61.00
41628;DHT22;27321;50.816;6.054;2022-09-12T20:15:24;20.80;60.90
41628;DHT22;27321;50.816;6.054;2022-09-12T20:18:28;20.80;60.60
41628;DHT22;27321;50.816;6.054;2022-09-12T20:21:30;20.80;60.40
41628;DHT22;27321;50.816;6.054;2022-09-12T20:24:33;20.80;60.40
41628;DHT22;27321;50.816;6.054;2022-09-12T20:27:34;20.80;60.00
41628;DHT22;27321;50.816;6.054;2022-09-12T20:30:36;20.80;60.00
41628;DHT22;27321;50.816;6.054;2022-09-12T20:33:37;20.80;59.80
41628;DHT22;27321;50.816;6.054;2022-09-12T20:36:41;20.80;59.80
41628;DHT22;27321;50.816;6.054;2022-09-12T20:39:43;20.70;60.00
41628;DHT22;27321;50.816;6.054;2022-09-12T20:42:47;20.70;59.80
41628;DHT22;27321;50.816;6.054;2022-09-12T20:45:48;20.70;59.70
41628;DHT22;27321;50.816;6.054;2022-09-12T20:48:55;20.70;59.60
41628;DHT22;27321;50.816;6.054;2022-09-12T20:51:59;20.70;59.50
41628;DHT22;27321;50.816;6.054;2022-09-12T20:55:04;20.70;59.30
41628;DHT22;27321;50.816;6.054;2022-09-12T20:58:06;20.70;59.10
41628;DHT22;27321;50.816;6.054;2022-09-12T21:01:13;20.70;58.90
41628;DHT22;27321;50.816;6.054;2022-09-12T21:04:15;20.70;58.90
41628;DHT22;27321;50.816;6.054;2022-09-12T21:07:19;20.70;59.10
41628;DHT22;27321;50.816;6.054;2022-09-12T21:10:20;20.70;59.10
41628;DHT22;27321;50.816;6.054;2022-09-12T21:13:24;20.70;59.10
41628;DHT22;27321;50.816;6.054;2022-09-12T21:16:25;20.60;59.30
41628;DHT22;27321;50.816;6.054;2022-09-12T21:19:26;20.60;58.90
41628;DHT22;27321;50.816;6.054;2022-09-12T21:22:28;20.60;58.90
41628;DHT22;27321;50.816;6.054;2022-09-12T21:25:35;20.60;58.90
41628;DHT22;27321;50.816;6.054;2022-09-12T21:29:08;20.60;58.80
41628;DHT22;27321;50.816;6.054;2022-09-12T21:32:09;20.50;58.70
41628;DHT22;27321;50.816;6.054;2022-09-12T21:35:10;20.50;58.80
41628;DHT22;27321;50.816;6.054;2022-09-12T21:38:15;20.60;58.70
41628;DHT22;27321;50.816;6.054;2022-09-12T21:41:17;20.50;58.50
41628;DHT22;27321;50.816;6.054;2022-09-12T21:44:21;20.50;58.50